createdAt,value
2023-02-09T00:02:49.516Z,103181.59
2023-02-09T00:05:52.652Z,103183.09
2023-02-09T00:08:56.428Z,103175.19
2023-02-09T00:12:17.374Z,103169.94
2023-02-09T00:15:22.057Z,103164.59
2023-02-09T00:18:26.704Z,103171.53
2023-02-09T00:21:30.310Z,103175.13
2023-02-09T00:24:34.867Z,103172.34
2023-02-09T00:27:37.902Z,103162.97
2023-02-09T00:30:42.286Z,103155.22
2023-02-09T00:33:45.527Z,103147.38
2023-02-09T00:36:48.703Z,103151.63
2023-02-09T00:39:53.056Z,103150.09
2023-02-09T00:42:56.130Z,103144.22
2023-02-09T00:46:02.274Z,103139.06
2023-02-09T00:49:05.981Z,103139.13
2023-02-09T00:52:10.118Z,103141.50
2023-02-09T00:55:13.334Z,103135.50
2023-02-09T00:58:18.415Z,103142.19
2023-02-09T01:01:24.178Z,103135.19
2023-02-09T01:04:28.972Z,103135.81
2023-02-09T01:07:33.358Z,103125.03
2023-02-09T01:10:38.189Z,103119.75
2023-02-09T01:13:43.788Z,103119.19
2023-02-09T01:16:48.461Z,103118.34
2023-02-09T01:19:53.899Z,103116.84
2023-02-09T01:22:56.918Z,103123.28
2023-02-09T01:26:05.019Z,103117.66
2023-02-09T01:29:15.037Z,103114.28
2023-02-09T01:32:19.772Z,103115.06
2023-02-09T01:35:22.881Z,103104.00
2023-02-09T01:38:26.398Z,103098.63
2023-02-09T01:41:33.010Z,103097.69
2023-02-09T01:45:26.576Z,103083.06
2023-02-09T01:48:32.129Z,103086.69
2023-02-09T01:51:42.065Z,103082.25
2023-02-09T01:54:48.837Z,103076.44
2023-02-09T01:57:57.484Z,103075.47
2023-02-09T02:01:01.318Z,103077.28
2023-02-09T02:04:07.998Z,103068.16
2023-02-09T02:07:17.736Z,103053.66
2023-02-09T02:10:20.935Z,103047.44
2023-02-09T02:13:24.435Z,103057.34
2023-02-09T02:16:42.543Z,103044.72
2023-02-09T02:20:54.790Z,103042.63
2023-02-09T02:24:21.317Z,103044.09
2023-02-09T02:27:33.243Z,103040.63
2023-02-09T02:30:55.584Z,103038.03
2023-02-09T02:34:07.285Z,103028.88
2023-02-09T02:37:23.288Z,103030.75
2023-02-09T02:40:39.817Z,103017.13
2023-02-09T02:43:53.759Z,103020.41
2023-02-09T02:47:02.647Z,103013.75
2023-02-09T02:50:12.516Z,103012.94
2023-02-09T02:53:18.138Z,103013.81
2023-02-09T02:56:29.138Z,103002.88
2023-02-09T02:59:38.653Z,103002.03
2023-02-09T03:02:45.219Z,103006.25
2023-02-09T03:05:50.933Z,102996.06
2023-02-09T03:08:58.717Z,102991.75
2023-02-09T03:12:18.579Z,102989.25
2023-02-09T03:15:33.209Z,102984.22
2023-02-09T03:18:44.503Z,102986.78
2023-02-09T03:21:56.213Z,102990.19
2023-02-09T03:25:05.583Z,102981.84
2023-02-09T03:28:13.823Z,102981.88
2023-02-09T03:31:17.447Z,102985.28
2023-02-09T03:34:21.235Z,102977.63
2023-02-09T03:37:26.195Z,102968.31
2023-02-09T03:40:29.506Z,102974.25
2023-02-09T03:43:46.659Z,102964.06
2023-02-09T03:46:50.839Z,102964.06
2023-02-09T03:49:58.067Z,102958.00
2023-02-09T03:53:02.664Z,102955.44
2023-02-09T03:56:10.106Z,102964.00
2023-02-09T03:59:13.327Z,102957.16
2023-02-09T04:02:16.468Z,102953.72
2023-02-09T04:05:19.861Z,102957.00
2023-02-09T04:08:24.383Z,102946.81
2023-02-09T04:11:29.828Z,102959.59
2023-02-09T04:14:32.870Z,102957.81
2023-02-09T04:17:36.124Z,102953.41
2023-02-09T04:20:39.412Z,102946.59
2023-02-09T04:23:46.837Z,102941.50
2023-02-09T04:26:49.875Z,102943.06
2023-02-09T04:29:52.928Z,102943.06
2023-02-09T04:32:56.181Z,102940.53
2023-02-09T04:35:59.621Z,102937.16
2023-02-09T04:39:04.227Z,102942.97
2023-02-09T04:42:07.218Z,102951.41
2023-02-09T04:45:10.716Z,102947.06
2023-02-09T04:48:18.654Z,102943.59
2023-02-09T04:51:21.734Z,102935.91
2023-02-09T04:54:26.031Z,102940.16
2023-02-09T04:57:46.504Z,102937.53
2023-02-09T05:00:49.705Z,102932.75
2023-02-09T05:03:53.098Z,102932.84
2023-02-09T05:06:56.205Z,102937.59
2023-02-09T05:10:00.906Z,102938.44
2023-02-09T05:13:04.267Z,102930.69
2023-02-09T05:16:08.334Z,102932.09
2023-02-09T05:19:11.435Z,102941.91
2023-02-09T05:22:15.106Z,102936.00
2023-02-09T05:25:19.747Z,102932.47
2023-02-09T05:28:24.192Z,102913.22
2023-02-09T05:31:27.383Z,102919.22
2023-02-09T05:34:30.479Z,102915.84
2023-02-09T05:37:36.034Z,102914.78
2023-02-09T05:40:40.604Z,102918.88
2023-02-09T05:43:43.643Z,102910.25
2023-02-09T05:46:48.510Z,102910.53
2023-02-09T05:49:52.275Z,102915.44
2023-02-09T05:52:55.479Z,102918.13
2023-02-09T05:55:59.871Z,102921.13
2023-02-09T05:59:04.680Z,102927.13
2023-02-09T06:02:08.754Z,102918.06
2023-02-09T06:05:11.872Z,102925.84
2023-02-09T06:08:14.942Z,102923.28
2023-02-09T06:11:20.230Z,102922.41
2023-02-09T06:14:25.492Z,102924.13
2023-02-09T06:17:28.473Z,102925.00
2023-02-09T06:20:31.895Z,102922.69
2023-02-09T06:23:35.437Z,102919.19
2023-02-09T06:26:43.168Z,102915.91
2023-02-09T06:29:46.170Z,102922.78
2023-02-09T06:32:49.838Z,102931.91
2023-02-09T06:35:52.948Z,102926.06
2023-02-09T06:38:55.990Z,102920.97
2023-02-09T06:42:00.381Z,102928.50
2023-02-09T06:45:05.212Z,102927.53
2023-02-09T06:48:10.087Z,102923.38
2023-02-09T06:51:16.789Z,102923.66
2023-02-09T06:54:20.039Z,102922.31
2023-02-09T06:57:24.416Z,102920.78
2023-02-09T07:00:28.549Z,102929.31
2023-02-09T07:03:31.686Z,102919.34
2023-02-09T07:06:38.909Z,102927.97
2023-02-09T07:09:42.053Z,102925.56
2023-02-09T07:12:46.914Z,102940.06
2023-02-09T07:15:58.344Z,102942.53
2023-02-09T07:19:01.407Z,102946.81
2023-02-09T07:22:07.382Z,102931.56
2023-02-09T07:25:12.010Z,102936.94
2023-02-09T07:28:21.140Z,102936.13
2023-02-09T07:31:27.157Z,102931.69
2023-02-09T07:34:30.352Z,102933.50
2023-02-09T07:37:33.549Z,102932.91
2023-02-09T07:40:41.495Z,102930.56
2023-02-09T07:43:45.881Z,102933.31
2023-02-09T07:46:49.160Z,102927.66
2023-02-09T07:49:52.257Z,102921.72
2023-02-09T07:52:55.570Z,102922.75
2023-02-09T07:55:58.639Z,102928.03
2023-02-09T07:59:03.334Z,102926.47
2023-02-09T08:02:07.598Z,102928.41
2023-02-09T08:05:15.574Z,102917.78
2023-02-09T08:08:18.721Z,102914.69
2023-02-09T08:11:26.937Z,102909.78
2023-02-09T08:14:39.694Z,102908.38
2023-02-09T08:17:43.274Z,102907.75
2023-02-09T08:20:47.581Z,102909.63
2023-02-09T08:23:55.845Z,102908.19
2023-02-09T08:26:59.005Z,102907.47
2023-02-09T08:30:06.790Z,102902.63
2023-02-09T08:33:09.930Z,102900.28
2023-02-09T08:36:15.073Z,102885.25
2023-02-09T08:39:18.122Z,102880.41
2023-02-09T08:42:21.210Z,102880.69
2023-02-09T08:45:26.024Z,102884.28
2023-02-09T08:48:32.947Z,102881.16
2023-02-09T08:51:37.971Z,102872.88
2023-02-09T08:54:41.240Z,102869.72
2023-02-09T08:57:44.885Z,102873.34
2023-02-09T09:00:49.476Z,102871.94
2023-02-09T09:03:53.066Z,102868.69
2023-02-09T09:06:56.152Z,102868.84
2023-02-09T09:09:59.167Z,102869.13
2023-02-09T09:13:02.177Z,102877.00
2023-02-09T09:16:08.065Z,102868.53
2023-02-09T09:19:11.040Z,102867.84
2023-02-09T09:22:14.131Z,102867.91
2023-02-09T09:25:17.399Z,102862.88
2023-02-09T09:28:20.561Z,102852.75
2023-02-09T09:31:25.100Z,102855.56
2023-02-09T09:34:28.269Z,102857.50
2023-02-09T09:37:31.305Z,102863.50
2023-02-09T09:40:40.425Z,102849.97
2023-02-09T09:43:43.888Z,102843.25
2023-02-09T09:46:52.378Z,102842.53
2023-02-09T09:49:55.426Z,102847.59
2023-02-09T09:53:06.716Z,102833.25
2023-02-09T09:56:12.261Z,102836.75
2023-02-09T09:59:30.320Z,102826.59
2023-02-09T10:02:35.745Z,102820.72
2023-02-09T10:05:41.145Z,102804.53
2023-02-09T10:08:48.509Z,102798.59
2023-02-09T10:12:01.222Z,102795.16
2023-02-09T10:15:29.183Z,102802.06
2023-02-09T10:18:38.114Z,102804.75
2023-02-09T10:21:42.020Z,102802.22
2023-02-09T10:24:46.609Z,102795.47
2023-02-09T10:27:49.859Z,102784.38
2023-02-09T10:30:55.305Z,102775.81
2023-02-09T10:34:04.435Z,102780.16
2023-02-09T10:37:22.374Z,102781.03
2023-02-09T10:40:29.952Z,102775.09
2023-02-09T10:43:35.808Z,102767.41
2023-02-09T10:46:41.725Z,102770.88
2023-02-09T10:49:54.708Z,102775.19
2023-02-09T10:53:02.027Z,102755.53
2023-02-09T10:56:16.193Z,102739.25
2023-02-09T10:59:22.022Z,102731.56
2023-02-09T11:02:37.744Z,102720.41
2023-02-09T11:05:44.687Z,102714.44
2023-02-09T11:08:57.978Z,102717.81
2023-02-09T11:12:02.279Z,102705.78
2023-02-09T11:15:13.995Z,102686.09
2023-02-09T11:18:22.741Z,102680.97
2023-02-09T11:21:45.732Z,102668.06
2023-02-09T11:25:05.370Z,102677.41
2023-02-09T11:28:36.417Z,102672.19
2023-02-09T11:31:54.151Z,102655.88
2023-02-09T11:35:15.005Z,102649.72
2023-02-09T11:38:30.225Z,102652.16
2023-02-09T11:41:56.997Z,102656.41
2023-02-09T11:45:09.005Z,102671.94
2023-02-09T11:48:15.877Z,102662.47
2023-02-09T11:51:22.394Z,102664.06
2023-02-09T11:54:33.405Z,102658.94
2023-02-09T11:57:44.312Z,102651.06
2023-02-09T12:01:06.738Z,102655.91
2023-02-09T12:04:26.120Z,102652.28
2023-02-09T12:07:37.731Z,102651.56
2023-02-09T12:10:50.110Z,102647.38
2023-02-09T12:14:14.984Z,102645.66
2023-02-09T12:17:24.957Z,102645.72
2023-02-09T12:20:51.296Z,102649.91
2023-02-09T12:23:54.499Z,102653.34
2023-02-09T12:27:03.265Z,102642.91
2023-02-09T12:31:04.462Z,102636.91
2023-02-09T12:34:40.901Z,102636.78
2023-02-09T12:38:18.126Z,102639.94
2023-02-09T12:41:25.289Z,102640.19
2023-02-09T12:44:40.184Z,102629.22
2023-02-09T12:48:05.478Z,102620.50
2023-02-09T12:51:54.266Z,102619.47
2023-02-09T12:55:00.283Z,102617.75
2023-02-09T12:58:42.473Z,102615.09
2023-02-09T13:02:28.759Z,102615.13
2023-02-09T13:05:51.269Z,102618.69
2023-02-09T13:12:55.635Z,102630.66
2023-02-09T13:16:48.276Z,102630.75
2023-02-09T13:20:34.754Z,102647.00
2023-02-09T13:23:57.067Z,102639.06
2023-02-09T13:27:20.740Z,102645.22
2023-02-09T13:34:42.718Z,102659.00
2023-02-09T13:37:50.528Z,102661.06
2023-02-09T13:41:05.221Z,102663.53
2023-02-09T13:44:26.968Z,102663.31
2023-02-09T13:47:32.109Z,102663.22
2023-02-09T13:51:12.892Z,102661.63
2023-02-09T13:54:28.381Z,102658.94
2023-02-09T13:57:35.863Z,102647.47
2023-02-09T14:00:43.618Z,102620.13
2023-02-09T14:03:58.201Z,102628.72
2023-02-09T14:07:13.576Z,102631.25
2023-02-09T14:10:22.443Z,102622.84
2023-02-09T14:13:31.595Z,102596.19
2023-02-09T14:16:44.684Z,102588.88
2023-02-09T14:19:56.972Z,102601.81
2023-02-09T14:23:02.308Z,102615.66
2023-02-09T14:26:19.834Z,102620.75
2023-02-09T14:29:32.764Z,102610.28
2023-02-09T14:32:40.409Z,102607.66
2023-02-09T14:36:01.276Z,102594.25
2023-02-09T14:39:17.169Z,102614.91
2023-02-09T14:42:29.480Z,102625.22
2023-02-09T14:45:43.500Z,102628.69
2023-02-09T14:48:49.843Z,102636.47
2023-02-09T14:52:05.007Z,102642.59
2023-02-09T14:55:16.335Z,102634.94
2023-02-09T14:58:27.059Z,102645.22
2023-02-09T15:01:33.134Z,102627.28
2023-02-09T15:04:36.466Z,102635.84
2023-02-09T15:07:46.028Z,102631.72
2023-02-09T15:10:53.335Z,102623.06
2023-02-09T15:14:03.845Z,102623.16
2023-02-09T15:17:17.963Z,102623.22
2023-02-09T15:20:25.453Z,102614.72
2023-02-09T15:23:31.282Z,102608.00
2023-02-09T15:26:37.771Z,102599.44
2023-02-09T15:29:42.386Z,102577.22
2023-02-09T15:32:46.135Z,102600.38
2023-02-09T15:35:50.111Z,102615.78
2023-02-09T15:38:53.449Z,102604.69
2023-02-09T15:42:14.489Z,102597.00
2023-02-09T15:45:39.564Z,102597.09
2023-02-09T15:48:43.293Z,102621.06
2023-02-09T15:51:46.620Z,102624.50
2023-02-09T15:54:52.401Z,102625.34
2023-02-09T15:57:57.007Z,102621.13
2023-02-09T16:01:01.469Z,102610.91
2023-02-09T16:04:15.370Z,102603.22
2023-02-09T16:07:24.525Z,102581.81
2023-02-09T16:10:31.065Z,102587.81
2023-02-09T16:13:34.164Z,102599.78
2023-02-09T16:16:42.003Z,102603.22
2023-02-09T16:19:49.938Z,102599.81
2023-02-09T16:23:11.700Z,102593.00
2023-02-09T16:26:19.362Z,102587.84
2023-02-09T16:29:27.733Z,102578.47
2023-02-09T16:32:32.556Z,102581.88
2023-02-09T16:35:37.360Z,102583.56
2023-02-09T16:38:42.795Z,102604.09
2023-02-09T16:41:50.889Z,102616.03
2023-02-09T16:44:54.473Z,102615.19
2023-02-09T16:47:59.832Z,102622.81
2023-02-09T16:51:07.201Z,102619.34
2023-02-09T16:54:11.463Z,102606.56
2023-02-09T16:57:18.578Z,102602.28
2023-02-09T17:00:24.504Z,102621.09
2023-02-09T17:03:34.741Z,102618.53
2023-02-09T17:06:40.418Z,102618.50
2023-02-09T17:09:45.331Z,102633.03
2023-02-09T17:12:48.546Z,102640.69
2023-02-09T17:15:59.288Z,102634.69
2023-02-09T17:19:07.141Z,102637.25
2023-02-09T17:22:14.876Z,102633.00
2023-02-09T17:25:19.576Z,102644.97
2023-02-09T17:28:25.281Z,102646.72
2023-02-09T17:31:38.303Z,102646.72
2023-02-09T17:34:57.584Z,102639.88
2023-02-09T17:38:03.953Z,102631.34
2023-02-09T17:41:27.213Z,102632.16
2023-02-09T17:44:45.539Z,102630.47
2023-02-09T17:48:18.320Z,102637.31
2023-02-09T17:51:29.635Z,102643.28
2023-02-09T17:54:33.899Z,102643.28
2023-02-09T17:57:39.599Z,102654.41
2023-02-09T18:00:44.045Z,102650.06
2023-02-09T18:03:47.158Z,102650.91
2023-02-09T18:06:51.756Z,102645.75
2023-02-09T18:09:56.578Z,102649.16
2023-02-09T18:13:02.617Z,102654.31
2023-02-09T18:16:09.278Z,102653.44
2023-02-09T18:19:15.887Z,102651.72
2023-02-09T18:22:20.950Z,102657.75
2023-02-09T18:25:29.035Z,102657.78
2023-02-09T18:28:32.450Z,102652.66
2023-02-09T18:31:44.759Z,102646.63
2023-02-09T18:34:49.550Z,102645.75
2023-02-09T18:37:54.609Z,102646.59
2023-02-09T18:40:57.912Z,102649.22
2023-02-09T18:44:03.213Z,102652.59
2023-02-09T18:47:15.945Z,102635.50
2023-02-09T18:50:27.301Z,102638.06
2023-02-09T18:53:32.039Z,102639.75
2023-02-09T18:56:40.482Z,102642.28
2023-02-09T18:59:47.625Z,102637.94
2023-02-09T19:02:53.340Z,102638.75
2023-02-09T19:05:56.468Z,102640.47
2023-02-09T19:09:04.529Z,102642.16
2023-02-09T19:12:08.366Z,102639.59
2023-02-09T19:15:12.602Z,102636.13
2023-02-09T19:18:15.692Z,102633.53
2023-02-09T19:21:21.510Z,102642.88
2023-02-09T19:24:27.149Z,102636.03
2023-02-09T19:27:33.420Z,102636.03
2023-02-09T19:30:39.084Z,102640.31
2023-02-09T19:33:42.470Z,102640.28
2023-02-09T19:36:48.647Z,102626.69
2023-02-09T19:40:04.443Z,102639.50
2023-02-09T19:43:07.853Z,102647.97
2023-02-09T19:46:11.121Z,102650.47
2023-02-09T19:49:14.312Z,102643.69
2023-02-09T19:52:17.359Z,102641.16
2023-02-09T19:55:22.373Z,102636.06
2023-02-09T19:58:27.160Z,102631.84
2023-02-09T20:01:33.860Z,102630.13
2023-02-09T20:04:37.532Z,102623.28
2023-02-09T20:07:41.002Z,102621.53
2023-02-09T20:10:46.412Z,102623.25
2023-02-09T20:13:52.433Z,102624.13
2023-02-09T20:16:56.476Z,102630.00
2023-02-09T20:20:14.930Z,102633.44
2023-02-09T20:31:38.607Z,102640.16
2023-02-09T20:34:15.038Z,102632.56
2023-02-09T20:37:20.513Z,102634.28
2023-02-09T20:40:23.909Z,102635.94
2023-02-09T20:43:44.534Z,102630.00
2023-02-09T20:46:59.634Z,102627.41
2023-02-09T20:50:09.911Z,102623.13
2023-02-09T20:53:13.310Z,102635.03
2023-02-09T20:56:16.366Z,102641.00
2023-02-09T20:59:19.394Z,102644.28
2023-02-09T21:02:22.870Z,102646.88
2023-02-09T21:05:29.293Z,102643.41
2023-02-09T21:08:32.639Z,102653.59
2023-02-09T21:11:35.989Z,102652.75
2023-02-09T21:14:45.124Z,102654.50
2023-02-09T21:17:49.067Z,102652.75
2023-02-09T21:20:53.707Z,102656.97
2023-02-09T21:23:56.880Z,102666.19
2023-02-09T21:27:00.694Z,102657.63
2023-02-09T21:30:05.173Z,102672.88
2023-02-09T21:33:08.362Z,102672.88
2023-02-09T21:36:12.924Z,102681.34
2023-02-09T21:39:16.581Z,102672.84
2023-02-09T21:42:30.928Z,102678.84
2023-02-09T21:45:34.342Z,102670.34
2023-02-09T21:48:37.508Z,102669.47
2023-02-09T21:51:43.131Z,102666.97
2023-02-09T21:54:46.110Z,102660.19
2023-02-09T21:57:49.543Z,102662.69
2023-02-09T22:01:00.546Z,102658.44
2023-02-09T22:04:04.368Z,102660.13
2023-02-09T22:07:10.108Z,102665.16
2023-02-09T22:10:13.534Z,102661.69
2023-02-09T22:13:18.767Z,102671.94
2023-02-09T22:16:24.057Z,102671.06
2023-02-09T22:19:27.389Z,102677.94
2023-02-09T22:22:33.048Z,102676.25
2023-02-09T22:25:37.992Z,102682.25
2023-02-09T22:28:41.928Z,102684.03
2023-02-09T22:31:46.239Z,102680.66
2023-02-09T22:34:49.302Z,102670.53
2023-02-09T22:37:53.964Z,102680.03
2023-02-09T22:40:56.940Z,102682.69
2023-02-09T22:44:02.950Z,102675.97
2023-02-09T22:47:06.020Z,102685.44
2023-02-09T22:50:10.222Z,102692.28
2023-02-09T22:53:17.623Z,102688.94
2023-02-09T22:56:20.789Z,102686.41
2023-02-09T22:59:23.781Z,102693.28
2023-02-09T23:02:26.934Z,102686.50
2023-02-09T23:05:30.127Z,102688.22
2023-02-09T23:08:34.996Z,102685.72
2023-02-09T23:11:38.147Z,102681.44
2023-02-09T23:14:42.622Z,102679.78
2023-02-09T23:17:45.747Z,102674.69
2023-02-09T23:20:49.503Z,102687.47
2023-02-09T23:23:54.389Z,102678.13
2023-02-09T23:26:58.171Z,102676.41
2023-02-09T23:30:03.393Z,102676.44
2023-02-09T23:33:08.371Z,102675.59
2023-02-09T23:36:14.949Z,102676.44
2023-02-09T23:39:22.309Z,102679.06
2023-02-09T23:42:25.447Z,102674.78
2023-02-09T23:45:28.506Z,102673.16
2023-02-09T23:48:32.082Z,102680.81
2023-02-09T23:51:36.724Z,102675.69
2023-02-09T23:54:41.060Z,102677.41
2023-02-09T23:57:44.048Z,102685.13
